sensor_id;sensor_type;location;lat;lon;timestamp;P1;durP1;ratioP1;P2;durP2;ratioP2
30571;SDS011;17348;50.948;10.696;2023-02-28T00:02:19;13.03;;;4.90;;
30571;SDS011;17348;50.948;10.696;2023-02-28T00:05:22;11.13;;;4.77;;
30571;SDS011;17348;50.948;10.696;2023-02-28T00:08:28;11.70;;;4.97;;
30571;SDS011;17348;50.948;10.696;2023-02-28T00:11:31;10.63;;;4.97;;
30571;SDS011;17348;50.948;10.696;2023-02-28T00:14:33;8.80;;;4.47;;
30571;SDS011;17348;50.948;10.696;2023-02-28T00:17:36;8.80;;;4.53;;
30571;SDS011;17348;50.948;10.696;2023-02-28T00:20:39;10.07;;;4.33;;
30571;SDS011;17348;50.948;10.696;2023-02-28T00:23:43;7.70;;;4.47;;
30571;SDS011;17348;50.948;10.696;2023-02-28T00:26:45;12.63;;;5.00;;
30571;SDS011;17348;50.948;10.696;2023-02-28T00:29:47;12.30;;;4.73;;
30571;SDS011;17348;50.948;10.696;2023-02-28T00:32:50;7.33;;;4.30;;
30571;SDS011;17348;50.948;10.696;2023-02-28T00:36:00;8.53;;;4.00;;
30571;SDS011;17348;50.948;10.696;2023-02-28T00:39:05;9.73;;;4.53;;
30571;SDS011;17348;50.948;10.696;2023-02-28T00:42:08;9.03;;;4.43;;
30571;SDS011;17348;50.948;10.696;2023-02-28T00:45:10;6.70;;;4.37;;
30571;SDS011;17348;50.948;10.696;2023-02-28T00:48:12;9.20;;;4.87;;
30571;SDS011;17348;50.948;10.696;2023-02-28T00:51:15;10.00;;;4.63;;
30571;SDS011;17348;50.948;10.696;2023-02-28T00:54:19;6.13;;;4.33;;
30571;SDS011;17348;50.948;10.696;2023-02-28T00:57:21;11.20;;;5.37;;
30571;SDS011;17348;50.948;10.696;2023-02-28T01:00:24;10.20;;;5.10;;
30571;SDS011;17348;50.948;10.696;2023-02-28T01:03:26;6.67;;;3.93;;
30571;SDS011;17348;50.948;10.696;2023-02-28T01:06:29;7.50;;;4.37;;
30571;SDS011;17348;50.948;10.696;2023-02-28T01:09:33;12.03;;;5.37;;
30571;SDS011;17348;50.948;10.696;2023-02-28T01:12:36;7.53;;;4.77;;
30571;SDS011;17348;50.948;10.696;2023-02-28T01:15:38;6.77;;;4.07;;
30571;SDS011;17348;50.948;10.696;2023-02-28T01:18:47;12.17;;;4.57;;
30571;SDS011;17348;50.948;10.696;2023-02-28T01:21:49;6.40;;;4.30;;
30571;SDS011;17348;50.948;10.696;2023-02-28T01:24:53;9.23;;;4.83;;
30571;SDS011;17348;50.948;10.696;2023-02-28T01:27:55;5.60;;;3.87;;
30571;SDS011;17348;50.948;10.696;2023-02-28T01:30:58;9.37;;;3.67;;
30571;SDS011;17348;50.948;10.696;2023-02-28T01:34:00;7.53;;;4.43;;
30571;SDS011;17348;50.948;10.696;2023-02-28T01:37:03;12.10;;;4.73;;
30571;SDS011;17348;50.948;10.696;2023-02-28T01:40:07;15.53;;;4.87;;
30571;SDS011;17348;50.948;10.696;2023-02-28T01:43:12;6.60;;;3.67;;
30571;SDS011;17348;50.948;10.696;2023-02-28T01:46:21;7.70;;;4.75;;
30571;SDS011;17348;50.948;10.696;2023-02-28T01:49:23;7.87;;;4.17;;
30571;SDS011;17348;50.948;10.696;2023-02-28T01:52:26;10.60;;;4.23;;
30571;SDS011;17348;50.948;10.696;2023-02-28T01:55:33;9.03;;;5.07;;
30571;SDS011;17348;50.948;10.696;2023-02-28T01:58:37;9.30;;;4.50;;
30571;SDS011;17348;50.948;10.696;2023-02-28T02:01:39;10.63;;;4.33;;
30571;SDS011;17348;50.948;10.696;2023-02-28T02:04:46;8.77;;;4.80;;
30571;SDS011;17348;50.948;10.696;2023-02-28T02:07:55;11.80;;;5.80;;
30571;SDS011;17348;50.948;10.696;2023-02-28T02:11:04;11.20;;;4.60;;
30571;SDS011;17348;50.948;10.696;2023-02-28T02:14:13;9.70;;;4.53;;
30571;SDS011;17348;50.948;10.696;2023-02-28T02:17:29;8.63;;;4.10;;
30571;SDS011;17348;50.948;10.696;2023-02-28T02:20:45;12.27;;;5.20;;
30571;SDS011;17348;50.948;10.696;2023-02-28T02:24:03;10.27;;;4.47;;
30571;SDS011;17348;50.948;10.696;2023-02-28T02:27:27;8.90;;;4.53;;
30571;SDS011;17348;50.948;10.696;2023-02-28T02:31:18;11.33;;;3.90;;
30571;SDS011;17348;50.948;10.696;2023-02-28T02:34:47;12.57;;;4.43;;
30571;SDS011;17348;50.948;10.696;2023-02-28T02:37:57;7.87;;;3.73;;
30571;SDS011;17348;50.948;10.696;2023-02-28T02:41:08;13.57;;;3.87;;
30571;SDS011;17348;50.948;10.696;2023-02-28T02:44:17;8.13;;;4.35;;
30571;SDS011;17348;50.948;10.696;2023-02-28T02:47:23;8.13;;;4.07;;
30571;SDS011;17348;50.948;10.696;2023-02-28T02:50:31;7.87;;;4.40;;
30571;SDS011;17348;50.948;10.696;2023-02-28T02:53:40;10.97;;;4.97;;
30571;SDS011;17348;50.948;10.696;2023-02-28T02:56:47;10.13;;;4.47;;
30571;SDS011;17348;50.948;10.696;2023-02-28T02:59:51;6.57;;;3.43;;
30571;SDS011;17348;50.948;10.696;2023-02-28T03:02:56;13.40;;;3.93;;
30571;SDS011;17348;50.948;10.696;2023-02-28T03:06:01;6.90;;;3.73;;
30571;SDS011;17348;50.948;10.696;2023-02-28T03:09:04;7.10;;;3.60;;
30571;SDS011;17348;50.948;10.696;2023-02-28T03:12:08;12.53;;;3.77;;
30571;SDS011;17348;50.948;10.696;2023-02-28T03:15:14;6.47;;;2.90;;
30571;SDS011;17348;50.948;10.696;2023-02-28T03:18:28;7.93;;;4.03;;
30571;SDS011;17348;50.948;10.696;2023-02-28T03:21:38;8.83;;;3.30;;
30571;SDS011;17348;50.948;10.696;2023-02-28T03:24:46;8.77;;;3.80;;
30571;SDS011;17348;50.948;10.696;2023-02-28T03:27:55;9.03;;;3.90;;
30571;SDS011;17348;50.948;10.696;2023-02-28T03:31:03;7.50;;;3.07;;
30571;SDS011;17348;50.948;10.696;2023-02-28T03:34:12;6.30;;;3.43;;
30571;SDS011;17348;50.948;10.696;2023-02-28T03:37:21;5.93;;;3.30;;
30571;SDS011;17348;50.948;10.696;2023-02-28T03:40:26;8.70;;;4.20;;
30571;SDS011;17348;50.948;10.696;2023-02-28T03:43:32;6.07;;;4.00;;
30571;SDS011;17348;50.948;10.696;2023-02-28T03:46:38;9.87;;;4.33;;
30571;SDS011;17348;50.948;10.696;2023-02-28T03:49:47;8.00;;;4.30;;
30571;SDS011;17348;50.948;10.696;2023-02-28T03:52:57;6.23;;;3.87;;
30571;SDS011;17348;50.948;10.696;2023-02-28T03:56:05;6.50;;;3.65;;
30571;SDS011;17348;50.948;10.696;2023-02-28T03:59:14;6.73;;;3.87;;
30571;SDS011;17348;50.948;10.696;2023-02-28T04:02:20;7.80;;;3.67;;
30571;SDS011;17348;50.948;10.696;2023-02-28T04:05:23;8.67;;;3.67;;
30571;SDS011;17348;50.948;10.696;2023-02-28T04:08:27;7.67;;;4.03;;
30571;SDS011;17348;50.948;10.696;2023-02-28T04:11:31;6.40;;;3.50;;
30571;SDS011;17348;50.948;10.696;2023-02-28T04:14:35;8.03;;;3.27;;
30571;SDS011;17348;50.948;10.696;2023-02-28T04:17:40;8.20;;;4.17;;
30571;SDS011;17348;50.948;10.696;2023-02-28T04:20:42;7.33;;;3.70;;
30571;SDS011;17348;50.948;10.696;2023-02-28T04:23:45;12.97;;;3.40;;
30571;SDS011;17348;50.948;10.696;2023-02-28T04:26:48;8.27;;;4.13;;
30571;SDS011;17348;50.948;10.696;2023-02-28T04:29:52;6.33;;;4.10;;
30571;SDS011;17348;50.948;10.696;2023-02-28T04:32:54;9.63;;;4.17;;
30571;SDS011;17348;50.948;10.696;2023-02-28T04:36:00;5.83;;;3.80;;
30571;SDS011;17348;50.948;10.696;2023-02-28T04:39:04;6.30;;;3.50;;
30571;SDS011;17348;50.948;10.696;2023-02-28T04:42:06;9.70;;;4.63;;
30571;SDS011;17348;50.948;10.696;2023-02-28T04:45:10;6.77;;;3.80;;
30571;SDS011;17348;50.948;10.696;2023-02-28T04:48:13;10.03;;;4.77;;
30571;SDS011;17348;50.948;10.696;2023-02-28T04:51:17;14.60;;;4.77;;
30571;SDS011;17348;50.948;10.696;2023-02-28T04:54:21;13.27;;;4.13;;
30571;SDS011;17348;50.948;10.696;2023-02-28T04:57:23;12.10;;;4.43;;
30571;SDS011;17348;50.948;10.696;2023-02-28T05:00:26;10.50;;;4.30;;
30571;SDS011;17348;50.948;10.696;2023-02-28T05:03:28;8.87;;;3.93;;
30571;SDS011;17348;50.948;10.696;2023-02-28T05:06:31;7.50;;;4.33;;
30571;SDS011;17348;50.948;10.696;2023-02-28T05:09:35;9.10;;;4.00;;
30571;SDS011;17348;50.948;10.696;2023-02-28T05:12:37;8.43;;;4.10;;
30571;SDS011;17348;50.948;10.696;2023-02-28T05:15:40;6.97;;;3.37;;
30571;SDS011;17348;50.948;10.696;2023-02-28T05:18:42;11.53;;;5.37;;
30571;SDS011;17348;50.948;10.696;2023-02-28T05:21:49;8.10;;;4.57;;
30571;SDS011;17348;50.948;10.696;2023-02-28T05:24:55;14.63;;;4.10;;
30571;SDS011;17348;50.948;10.696;2023-02-28T05:27:57;7.93;;;4.00;;
30571;SDS011;17348;50.948;10.696;2023-02-28T05:30:59;11.87;;;4.40;;
30571;SDS011;17348;50.948;10.696;2023-02-28T05:34:02;6.27;;;3.87;;
30571;SDS011;17348;50.948;10.696;2023-02-28T05:37:05;15.83;;;4.37;;
30571;SDS011;17348;50.948;10.696;2023-02-28T05:40:09;11.23;;;5.43;;
30571;SDS011;17348;50.948;10.696;2023-02-28T05:43:12;10.63;;;5.57;;
30571;SDS011;17348;50.948;10.696;2023-02-28T05:46:15;7.80;;;3.80;;
30571;SDS011;17348;50.948;10.696;2023-02-28T05:49:18;7.27;;;4.30;;
30571;SDS011;17348;50.948;10.696;2023-02-28T05:52:20;12.37;;;4.90;;
30571;SDS011;17348;50.948;10.696;2023-02-28T05:55:24;11.43;;;4.43;;
30571;SDS011;17348;50.948;10.696;2023-02-28T05:58:26;9.27;;;4.47;;
30571;SDS011;17348;50.948;10.696;2023-02-28T06:01:32;10.30;;;5.10;;
30571;SDS011;17348;50.948;10.696;2023-02-28T06:04:35;12.37;;;5.00;;
30571;SDS011;17348;50.948;10.696;2023-02-28T06:07:38;11.87;;;5.40;;
30571;SDS011;17348;50.948;10.696;2023-02-28T06:10:41;10.67;;;5.07;;
30571;SDS011;17348;50.948;10.696;2023-02-28T06:13:44;14.53;;;4.80;;
30571;SDS011;17348;50.948;10.696;2023-02-28T06:16:46;6.93;;;4.40;;
30571;SDS011;17348;50.948;10.696;2023-02-28T06:19:49;13.07;;;5.60;;
30571;SDS011;17348;50.948;10.696;2023-02-28T06:22:51;15.90;;;4.83;;
30571;SDS011;17348;50.948;10.696;2023-02-28T06:25:56;8.67;;;4.43;;
30571;SDS011;17348;50.948;10.696;2023-02-28T06:28:59;8.27;;;4.43;;
30571;SDS011;17348;50.948;10.696;2023-02-28T06:32:01;11.77;;;5.43;;
30571;SDS011;17348;50.948;10.696;2023-02-28T06:35:04;14.93;;;6.10;;
30571;SDS011;17348;50.948;10.696;2023-02-28T06:38:07;17.63;;;6.97;;
30571;SDS011;17348;50.948;10.696;2023-02-28T06:41:10;10.83;;;5.53;;
30571;SDS011;17348;50.948;10.696;2023-02-28T06:44:13;8.47;;;3.93;;
30571;SDS011;17348;50.948;10.696;2023-02-28T06:47:17;14.20;;;4.83;;
30571;SDS011;17348;50.948;10.696;2023-02-28T06:50:20;12.80;;;4.07;;
30571;SDS011;17348;50.948;10.696;2023-02-28T06:53:22;10.77;;;4.90;;
30571;SDS011;17348;50.948;10.696;2023-02-28T06:56:26;21.30;;;5.10;;
30571;SDS011;17348;50.948;10.696;2023-02-28T06:59:28;8.63;;;3.80;;
30571;SDS011;17348;50.948;10.696;2023-02-28T07:02:30;7.57;;;4.27;;
30571;SDS011;17348;50.948;10.696;2023-02-28T07:05:34;9.10;;;4.77;;
30571;SDS011;17348;50.948;10.696;2023-02-28T07:08:36;11.43;;;4.20;;
30571;SDS011;17348;50.948;10.696;2023-02-28T07:11:41;10.43;;;4.40;;
30571;SDS011;17348;50.948;10.696;2023-02-28T07:14:44;10.63;;;4.07;;
30571;SDS011;17348;50.948;10.696;2023-02-28T07:17:46;10.73;;;4.50;;
30571;SDS011;17348;50.948;10.696;2023-02-28T07:20:49;8.17;;;4.03;;
30571;SDS011;17348;50.948;10.696;2023-02-28T07:23:51;13.53;;;4.17;;
30571;SDS011;17348;50.948;10.696;2023-02-28T07:26:55;10.40;;;4.20;;
30571;SDS011;17348;50.948;10.696;2023-02-28T07:29:57;9.40;;;4.23;;
30571;SDS011;17348;50.948;10.696;2023-02-28T07:33:02;8.10;;;3.47;;
30571;SDS011;17348;50.948;10.696;2023-02-28T07:36:05;14.20;;;4.40;;
30571;SDS011;17348;50.948;10.696;2023-02-28T07:39:09;12.23;;;3.47;;
30571;SDS011;17348;50.948;10.696;2023-02-28T07:42:13;7.00;;;4.20;;
30571;SDS011;17348;50.948;10.696;2023-02-28T07:45:15;9.23;;;3.67;;
30571;SDS011;17348;50.948;10.696;2023-02-28T07:48:18;7.50;;;3.80;;
30571;SDS011;17348;50.948;10.696;2023-02-28T07:51:21;5.00;;;3.10;;
30571;SDS011;17348;50.948;10.696;2023-02-28T07:54:24;7.33;;;3.30;;
30571;SDS011;17348;50.948;10.696;2023-02-28T07:57:28;7.93;;;4.07;;
30571;SDS011;17348;50.948;10.696;2023-02-28T08:00:30;9.33;;;3.90;;
30571;SDS011;17348;50.948;10.696;2023-02-28T08:03:33;9.00;;;4.00;;
30571;SDS011;17348;50.948;10.696;2023-02-28T08:06:35;9.33;;;4.03;;
30571;SDS011;17348;50.948;10.696;2023-02-28T08:09:38;8.73;;;4.63;;
30571;SDS011;17348;50.948;10.696;2023-02-28T08:12:42;7.83;;;3.87;;
30571;SDS011;17348;50.948;10.696;2023-02-28T08:15:44;9.70;;;4.00;;
30571;SDS011;17348;50.948;10.696;2023-02-28T08:18:48;8.07;;;4.63;;
30571;SDS011;17348;50.948;10.696;2023-02-28T08:21:51;7.97;;;3.70;;
30571;SDS011;17348;50.948;10.696;2023-02-28T08:24:53;12.13;;;4.17;;
30571;SDS011;17348;50.948;10.696;2023-02-28T08:27:57;11.50;;;4.60;;
30571;SDS011;17348;50.948;10.696;2023-02-28T08:30:59;12.13;;;5.37;;
30571;SDS011;17348;50.948;10.696;2023-02-28T08:34:04;7.83;;;4.50;;
30571;SDS011;17348;50.948;10.696;2023-02-28T08:37:07;10.73;;;4.90;;
30571;SDS011;17348;50.948;10.696;2023-02-28T08:40:10;8.50;;;4.17;;
30571;SDS011;17348;50.948;10.696;2023-02-28T08:43:19;11.60;;;4.10;;
30571;SDS011;17348;50.948;10.696;2023-02-28T08:46:22;11.53;;;5.20;;
30571;SDS011;17348;50.948;10.696;2023-02-28T08:49:24;7.33;;;3.13;;
30571;SDS011;17348;50.948;10.696;2023-02-28T08:52:26;11.80;;;4.27;;
30571;SDS011;17348;50.948;10.696;2023-02-28T08:55:29;9.77;;;4.47;;
30571;SDS011;17348;50.948;10.696;2023-02-28T08:58:32;8.10;;;3.87;;
30571;SDS011;17348;50.948;10.696;2023-02-28T09:01:35;8.70;;;4.00;;
30571;SDS011;17348;50.948;10.696;2023-02-28T09:04:38;7.03;;;3.90;;
30571;SDS011;17348;50.948;10.696;2023-02-28T09:07:40;8.17;;;4.33;;
30571;SDS011;17348;50.948;10.696;2023-02-28T09:10:42;6.60;;;3.90;;
30571;SDS011;17348;50.948;10.696;2023-02-28T09:13:46;11.67;;;4.60;;
30571;SDS011;17348;50.948;10.696;2023-02-28T09:16:48;8.93;;;4.30;;
30571;SDS011;17348;50.948;10.696;2023-02-28T09:19:51;7.37;;;3.90;;
30571;SDS011;17348;50.948;10.696;2023-02-28T09:22:53;9.53;;;4.67;;
30571;SDS011;17348;50.948;10.696;2023-02-28T09:25:55;9.87;;;4.40;;
30571;SDS011;17348;50.948;10.696;2023-02-28T09:28:59;9.27;;;4.50;;
30571;SDS011;17348;50.948;10.696;2023-02-28T09:32:03;11.30;;;4.33;;
30571;SDS011;17348;50.948;10.696;2023-02-28T09:35:06;12.03;;;4.10;;
30571;SDS011;17348;50.948;10.696;2023-02-28T09:38:13;12.27;;;4.20;;
30571;SDS011;17348;50.948;10.696;2023-02-28T09:41:17;8.17;;;4.30;;
30571;SDS011;17348;50.948;10.696;2023-02-28T09:44:24;6.93;;;3.97;;
30571;SDS011;17348;50.948;10.696;2023-02-28T09:47:31;9.40;;;3.87;;
30571;SDS011;17348;50.948;10.696;2023-02-28T09:50:36;10.47;;;4.43;;
30571;SDS011;17348;50.948;10.696;2023-02-28T09:53:42;7.43;;;3.57;;
30571;SDS011;17348;50.948;10.696;2023-02-28T09:56:48;7.33;;;3.00;;
30571;SDS011;17348;50.948;10.696;2023-02-28T09:59:59;6.55;;;3.05;;
30571;SDS011;17348;50.948;10.696;2023-02-28T10:03:15;8.07;;;3.50;;
30571;SDS011;17348;50.948;10.696;2023-02-28T10:06:29;7.77;;;3.90;;
30571;SDS011;17348;50.948;10.696;2023-02-28T10:09:35;9.17;;;3.50;;
30571;SDS011;17348;50.948;10.696;2023-02-28T10:12:38;12.00;;;3.83;;
30571;SDS011;17348;50.948;10.696;2023-02-28T10:15:46;5.33;;;3.07;;
30571;SDS011;17348;50.948;10.696;2023-02-28T10:18:52;13.20;;;3.97;;
30571;SDS011;17348;50.948;10.696;2023-02-28T10:22:00;7.27;;;3.70;;
30571;SDS011;17348;50.948;10.696;2023-02-28T10:25:05;4.90;;;3.13;;
30571;SDS011;17348;50.948;10.696;2023-02-28T10:28:19;5.30;;;3.20;;
30571;SDS011;17348;50.948;10.696;2023-02-28T10:31:23;5.07;;;3.17;;
30571;SDS011;17348;50.948;10.696;2023-02-28T10:34:25;11.93;;;3.70;;
30571;SDS011;17348;50.948;10.696;2023-02-28T10:37:28;4.90;;;2.70;;
30571;SDS011;17348;50.948;10.696;2023-02-28T10:40:32;8.87;;;3.43;;
30571;SDS011;17348;50.948;10.696;2023-02-28T10:43:37;5.53;;;3.60;;
30571;SDS011;17348;50.948;10.696;2023-02-28T10:46:41;9.67;;;3.77;;
30571;SDS011;17348;50.948;10.696;2023-02-28T10:49:48;8.83;;;3.40;;
30571;SDS011;17348;50.948;10.696;2023-02-28T10:52:53;11.83;;;4.13;;
30571;SDS011;17348;50.948;10.696;2023-02-28T10:55:56;7.73;;;3.80;;
30571;SDS011;17348;50.948;10.696;2023-02-28T10:59:01;10.27;;;3.60;;
30571;SDS011;17348;50.948;10.696;2023-02-28T11:02:28;6.70;;;3.63;;
30571;SDS011;17348;50.948;10.696;2023-02-28T11:05:33;8.73;;;3.50;;
30571;SDS011;17348;50.948;10.696;2023-02-28T11:08:43;6.40;;;3.47;;
30571;SDS011;17348;50.948;10.696;2023-02-28T11:11:47;15.30;;;4.60;;
30571;SDS011;17348;50.948;10.696;2023-02-28T11:14:52;17.57;;;4.70;;
30571;SDS011;17348;50.948;10.696;2023-02-28T11:17:58;12.13;;;4.27;;
30571;SDS011;17348;50.948;10.696;2023-02-28T11:21:02;9.33;;;3.90;;
30571;SDS011;17348;50.948;10.696;2023-02-28T11:24:06;14.00;;;5.03;;
30571;SDS011;17348;50.948;10.696;2023-02-28T11:27:39;5.57;;;2.73;;
30571;SDS011;17348;50.948;10.696;2023-02-28T11:30:49;10.30;;;3.97;;
30571;SDS011;17348;50.948;10.696;2023-02-28T11:34:11;9.60;;;3.87;;
30571;SDS011;17348;50.948;10.696;2023-02-28T11:37:29;6.80;;;3.93;;
30571;SDS011;17348;50.948;10.696;2023-02-28T11:40:36;12.03;;;4.53;;
30571;SDS011;17348;50.948;10.696;2023-02-28T11:43:48;7.20;;;3.25;;
30571;SDS011;17348;50.948;10.696;2023-02-28T11:47:04;9.60;;;4.37;;
30571;SDS011;17348;50.948;10.696;2023-02-28T11:50:16;16.98;;;4.90;;
30571;SDS011;17348;50.948;10.696;2023-02-28T11:53:31;9.03;;;3.87;;
30571;SDS011;17348;50.948;10.696;2023-02-28T11:56:46;13.23;;;4.43;;
30571;SDS011;17348;50.948;10.696;2023-02-28T11:59:54;15.27;;;4.40;;
30571;SDS011;17348;50.948;10.696;2023-02-28T12:03:06;9.77;;;4.80;;
30571;SDS011;17348;50.948;10.696;2023-02-28T12:06:30;7.50;;;3.60;;
30571;SDS011;17348;50.948;10.696;2023-02-28T12:09:43;5.13;;;3.47;;
30571;SDS011;17348;50.948;10.696;2023-02-28T12:13:01;7.30;;;4.37;;
30571;SDS011;17348;50.948;10.696;2023-02-28T12:16:19;9.97;;;4.03;;
30571;SDS011;17348;50.948;10.696;2023-02-28T12:19:36;8.98;;;4.20;;
30571;SDS011;17348;50.948;10.696;2023-02-28T12:22:49;9.17;;;3.97;;
30571;SDS011;17348;50.948;10.696;2023-02-28T12:26:07;6.17;;;3.67;;
30571;SDS011;17348;50.948;10.696;2023-02-28T12:29:19;10.77;;;5.13;;
30571;SDS011;17348;50.948;10.696;2023-02-28T12:32:25;14.80;;;4.43;;
30571;SDS011;17348;50.948;10.696;2023-02-28T12:35:32;11.83;;;4.67;;
30571;SDS011;17348;50.948;10.696;2023-02-28T12:38:40;13.47;;;4.27;;
30571;SDS011;17348;50.948;10.696;2023-02-28T12:41:47;8.30;;;4.07;;
30571;SDS011;17348;50.948;10.696;2023-02-28T12:44:56;10.03;;;4.50;;
30571;SDS011;17348;50.948;10.696;2023-02-28T12:48:04;9.57;;;4.43;;
30571;SDS011;17348;50.948;10.696;2023-02-28T12:51:10;8.53;;;4.77;;
30571;SDS011;17348;50.948;10.696;2023-02-28T12:54:18;9.43;;;4.80;;
30571;SDS011;17348;50.948;10.696;2023-02-28T12:57:27;11.10;;;4.90;;
30571;SDS011;17348;50.948;10.696;2023-02-28T13:00:38;9.67;;;5.00;;
30571;SDS011;17348;50.948;10.696;2023-02-28T13:04:24;11.73;;;5.67;;
30571;SDS011;17348;50.948;10.696;2023-02-28T13:07:51;9.77;;;4.60;;
30571;SDS011;17348;50.948;10.696;2023-02-28T13:11:24;14.17;;;5.00;;
30571;SDS011;17348;50.948;10.696;2023-02-28T13:14:30;7.77;;;4.50;;
30571;SDS011;17348;50.948;10.696;2023-02-28T13:17:38;11.20;;;4.90;;
30571;SDS011;17348;50.948;10.696;2023-02-28T13:20:47;11.47;;;5.70;;
30571;SDS011;17348;50.948;10.696;2023-02-28T13:24:01;15.77;;;5.67;;
30571;SDS011;17348;50.948;10.696;2023-02-28T13:34:14;14.13;;;4.60;;
30571;SDS011;17348;50.948;10.696;2023-02-28T13:37:32;10.27;;;4.90;;
30571;SDS011;17348;50.948;10.696;2023-02-28T13:40:36;10.50;;;5.93;;
30571;SDS011;17348;50.948;10.696;2023-02-28T13:47:24;7.67;;;5.00;;
30571;SDS011;17348;50.948;10.696;2023-02-28T13:50:32;14.57;;;5.40;;
30571;SDS011;17348;50.948;10.696;2023-02-28T13:53:46;11.90;;;5.53;;
30571;SDS011;17348;50.948;10.696;2023-02-28T13:57:03;10.23;;;5.33;;
30571;SDS011;17348;50.948;10.696;2023-02-28T14:00:22;11.00;;;4.77;;
30571;SDS011;17348;50.948;10.696;2023-02-28T14:03:36;10.57;;;5.90;;
30571;SDS011;17348;50.948;10.696;2023-02-28T14:06:51;12.60;;;5.20;;
30571;SDS011;17348;50.948;10.696;2023-02-28T14:09:57;10.83;;;5.73;;
30571;SDS011;17348;50.948;10.696;2023-02-28T14:13:12;11.27;;;4.97;;
30571;SDS011;17348;50.948;10.696;2023-02-28T14:16:36;16.83;;;6.13;;
30571;SDS011;17348;50.948;10.696;2023-02-28T14:19:44;8.90;;;5.47;;
30571;SDS011;17348;50.948;10.696;2023-02-28T14:22:52;13.93;;;6.13;;
30571;SDS011;17348;50.948;10.696;2023-02-28T14:26:06;13.50;;;5.30;;
30571;SDS011;17348;50.948;10.696;2023-02-28T14:29:19;13.02;;;5.85;;
30571;SDS011;17348;50.948;10.696;2023-02-28T14:32:47;15.23;;;5.70;;
30571;SDS011;17348;50.948;10.696;2023-02-28T14:39:24;13.43;;;6.30;;
30571;SDS011;17348;50.948;10.696;2023-02-28T14:42:28;16.90;;;6.67;;
30571;SDS011;17348;50.948;10.696;2023-02-28T14:45:33;11.47;;;6.30;;
30571;SDS011;17348;50.948;10.696;2023-02-28T14:48:39;8.90;;;5.77;;
30571;SDS011;17348;50.948;10.696;2023-02-28T14:51:41;12.93;;;6.47;;
30571;SDS011;17348;50.948;10.696;2023-02-28T14:54:44;14.07;;;6.93;;
30571;SDS011;17348;50.948;10.696;2023-02-28T14:57:51;18.87;;;7.03;;
30571;SDS011;17348;50.948;10.696;2023-02-28T15:00:55;16.13;;;6.90;;
30571;SDS011;17348;50.948;10.696;2023-02-28T15:04:00;17.50;;;6.80;;
30571;SDS011;17348;50.948;10.696;2023-02-28T15:07:08;43.83;;;7.53;;
30571;SDS011;17348;50.948;10.696;2023-02-28T15:10:20;12.17;;;7.10;;
30571;SDS011;17348;50.948;10.696;2023-02-28T15:13:26;21.97;;;7.23;;
30571;SDS011;17348;50.948;10.696;2023-02-28T15:16:37;14.50;;;6.90;;
30571;SDS011;17348;50.948;10.696;2023-02-28T15:19:45;15.83;;;7.03;;
30571;SDS011;17348;50.948;10.696;2023-02-28T15:22:52;16.10;;;7.57;;
30571;SDS011;17348;50.948;10.696;2023-02-28T15:25:58;16.80;;;7.83;;
30571;SDS011;17348;50.948;10.696;2023-02-28T15:29:03;14.07;;;6.93;;
30571;SDS011;17348;50.948;10.696;2023-02-28T15:32:26;17.50;;;7.70;;
30571;SDS011;17348;50.948;10.696;2023-02-28T15:35:32;15.30;;;7.53;;
30571;SDS011;17348;50.948;10.696;2023-02-28T15:38:35;19.03;;;7.47;;
30571;SDS011;17348;50.948;10.696;2023-02-28T15:41:38;17.70;;;8.30;;
30571;SDS011;17348;50.948;10.696;2023-02-28T15:44:40;15.00;;;7.13;;
30571;SDS011;17348;50.948;10.696;2023-02-28T15:47:44;14.13;;;6.97;;
30571;SDS011;17348;50.948;10.696;2023-02-28T15:50:50;17.80;;;7.83;;
30571;SDS011;17348;50.948;10.696;2023-02-28T15:53:54;13.10;;;7.37;;
30571;SDS011;17348;50.948;10.696;2023-02-28T15:57:01;18.97;;;6.93;;
30571;SDS011;17348;50.948;10.696;2023-02-28T16:00:09;17.53;;;7.97;;
30571;SDS011;17348;50.948;10.696;2023-02-28T16:06:42;11.40;;;6.03;;
30571;SDS011;17348;50.948;10.696;2023-02-28T16:09:45;13.00;;;6.80;;
30571;SDS011;17348;50.948;10.696;2023-02-28T16:12:48;15.07;;;7.80;;
30571;SDS011;17348;50.948;10.696;2023-02-28T16:15:51;28.07;;;7.33;;
30571;SDS011;17348;50.948;10.696;2023-02-28T16:18:54;15.17;;;7.00;;
30571;SDS011;17348;50.948;10.696;2023-02-28T16:21:58;19.40;;;7.87;;
30571;SDS011;17348;50.948;10.696;2023-02-28T16:25:00;17.23;;;7.73;;
30571;SDS011;17348;50.948;10.696;2023-02-28T16:28:05;14.50;;;7.30;;
30571;SDS011;17348;50.948;10.696;2023-02-28T16:31:14;17.50;;;7.10;;
30571;SDS011;17348;50.948;10.696;2023-02-28T16:34:17;14.70;;;6.97;;
30571;SDS011;17348;50.948;10.696;2023-02-28T16:37:20;13.30;;;7.50;;
30571;SDS011;17348;50.948;10.696;2023-02-28T16:40:24;17.27;;;7.30;;
30571;SDS011;17348;50.948;10.696;2023-02-28T16:43:29;15.97;;;7.93;;
30571;SDS011;17348;50.948;10.696;2023-02-28T16:46:33;14.33;;;7.83;;
30571;SDS011;17348;50.948;10.696;2023-02-28T16:49:36;12.77;;;7.40;;
30571;SDS011;17348;50.948;10.696;2023-02-28T16:52:41;17.00;;;7.67;;
30571;SDS011;17348;50.948;10.696;2023-02-28T16:55:43;18.83;;;7.77;;
30571;SDS011;17348;50.948;10.696;2023-02-28T16:58:48;19.67;;;7.83;;
30571;SDS011;17348;50.948;10.696;2023-02-28T17:01:51;14.93;;;7.63;;
30571;SDS011;17348;50.948;10.696;2023-02-28T17:04:54;17.20;;;8.43;;
30571;SDS011;17348;50.948;10.696;2023-02-28T17:07:58;14.50;;;8.00;;
30571;SDS011;17348;50.948;10.696;2023-02-28T17:11:00;16.97;;;8.03;;
30571;SDS011;17348;50.948;10.696;2023-02-28T17:14:03;21.50;;;9.37;;
30571;SDS011;17348;50.948;10.696;2023-02-28T17:17:05;23.50;;;9.63;;
30571;SDS011;17348;50.948;10.696;2023-02-28T17:20:10;17.87;;;8.20;;
30571;SDS011;17348;50.948;10.696;2023-02-28T17:23:15;24.07;;;9.40;;
30571;SDS011;17348;50.948;10.696;2023-02-28T17:26:18;21.67;;;9.50;;
30571;SDS011;17348;50.948;10.696;2023-02-28T17:29:22;16.43;;;8.47;;
30571;SDS011;17348;50.948;10.696;2023-02-28T17:32:24;21.33;;;9.03;;
30571;SDS011;17348;50.948;10.696;2023-02-28T17:35:28;20.70;;;9.47;;
30571;SDS011;17348;50.948;10.696;2023-02-28T17:38:31;25.07;;;10.10;;
30571;SDS011;17348;50.948;10.696;2023-02-28T17:41:34;19.33;;;9.30;;
30571;SDS011;17348;50.948;10.696;2023-02-28T17:44:36;22.60;;;9.67;;
30571;SDS011;17348;50.948;10.696;2023-02-28T17:47:39;21.90;;;9.50;;
30571;SDS011;17348;50.948;10.696;2023-02-28T17:50:43;22.33;;;9.90;;
30571;SDS011;17348;50.948;10.696;2023-02-28T17:53:46;23.47;;;9.30;;
30571;SDS011;17348;50.948;10.696;2023-02-28T17:56:49;18.27;;;8.47;;
30571;SDS011;17348;50.948;10.696;2023-02-28T17:59:51;20.83;;;9.90;;
30571;SDS011;17348;50.948;10.696;2023-02-28T18:02:54;19.57;;;9.10;;
30571;SDS011;17348;50.948;10.696;2023-02-28T18:05:56;20.43;;;9.77;;
30571;SDS011;17348;50.948;10.696;2023-02-28T18:09:01;24.30;;;8.43;;
30571;SDS011;17348;50.948;10.696;2023-02-28T18:12:03;20.60;;;10.43;;
30571;SDS011;17348;50.948;10.696;2023-02-28T18:15:06;23.97;;;10.93;;
30571;SDS011;17348;50.948;10.696;2023-02-28T18:18:09;22.93;;;10.10;;
30571;SDS011;17348;50.948;10.696;2023-02-28T18:21:12;20.60;;;10.03;;
30571;SDS011;17348;50.948;10.696;2023-02-28T18:24:17;17.67;;;9.57;;
30571;SDS011;17348;50.948;10.696;2023-02-28T18:27:21;24.27;;;10.37;;
30571;SDS011;17348;50.948;10.696;2023-02-28T18:30:24;24.73;;;11.07;;
30571;SDS011;17348;50.948;10.696;2023-02-28T18:33:29;30.27;;;10.73;;